createdAt,value
2022-11-05T00:00:35.219Z,94.89
2022-11-05T00:03:20.582Z,95.21
2022-11-05T00:06:09.444Z,94.69
2022-11-05T00:08:55.141Z,94.34
2022-11-05T00:11:41.703Z,94.72
2022-11-05T00:14:27.165Z,94.81
2022-11-05T00:16:53.498Z,95.14
2022-11-05T00:19:19.800Z,95.96
2022-11-05T00:22:04.933Z,95.77
2022-11-05T00:24:49.769Z,95.26
2022-11-05T00:27:16.596Z,95.35
2022-11-05T00:29:42.909Z,95.53
2022-11-05T00:32:09.375Z,94.66
2022-11-05T00:34:36.212Z,94.13
2022-11-05T00:37:02.534Z,94.39
2022-11-05T00:39:28.837Z,95.10
2022-11-05T00:42:14.142Z,94.16
2022-11-05T00:44:59.367Z,94.63
2022-11-05T00:47:44.082Z,95.53
2022-11-05T00:50:11.964Z,95.20
2022-11-05T00:52:58.213Z,95.60
2022-11-05T00:55:43.288Z,95.48
2022-11-05T00:58:12.119Z,95.75
2022-11-05T01:00:41.692Z,95.83
2022-11-05T01:03:11.381Z,95.33
2022-11-05T01:05:40.613Z,95.23
2022-11-05T01:08:07.742Z,94.67
2022-11-05T01:10:34.509Z,94.88
2022-11-05T01:13:00.898Z,94.94
2022-11-05T01:15:27.601Z,96.36
2022-11-05T01:17:53.966Z,96.75
2022-11-05T01:20:20.301Z,96.69
2022-11-05T01:22:47.143Z,97.17
2022-11-05T01:25:13.462Z,96.43
2022-11-05T01:27:39.900Z,96.63
2022-11-05T01:30:09.202Z,96.83
2022-11-05T01:32:36.735Z,96.29
2022-11-05T01:35:08.120Z,96.51
2022-11-05T01:37:35.706Z,96.75
2022-11-05T01:40:02.509Z,96.42
2022-11-05T01:42:32.011Z,96.92
2022-11-05T01:45:01.925Z,96.70
2022-11-05T01:47:32.267Z,96.76
2022-11-05T01:50:03.365Z,96.24
2022-11-05T01:52:32.285Z,96.41
2022-11-05T01:54:59.068Z,96.56
2022-11-05T01:57:27.193Z,95.81
2022-11-05T01:59:58.416Z,97.07
2022-11-05T02:02:25.460Z,97.02
2022-11-05T02:04:57.364Z,97.16
2022-11-05T02:07:26.774Z,96.97
2022-11-05T02:09:56.961Z,96.35
2022-11-05T02:12:24.061Z,95.47
2022-11-05T02:14:50.416Z,95.08
2022-11-05T02:17:51.219Z,95.27
2022-11-05T02:20:35.934Z,94.86
2022-11-05T02:23:34.802Z,94.67
2022-11-05T02:26:16.326Z,96.04
2022-11-05T02:28:55.194Z,95.51
2022-11-05T02:31:30.561Z,95.12
2022-11-05T02:34:16.138Z,94.63
2022-11-05T02:37:07.789Z,94.09
2022-11-05T02:39:55.613Z,94.60
2022-11-05T02:42:31.062Z,95.30
2022-11-05T02:45:24.802Z,95.84
2022-11-05T02:48:07.957Z,96.16
2022-11-05T02:50:53.242Z,96.35
2022-11-05T02:53:28.654Z,96.23
2022-11-05T02:56:07.353Z,95.24
2022-11-05T02:58:35.118Z,95.50
2022-11-05T03:01:06.634Z,95.39
2022-11-05T03:03:38.535Z,95.74
2022-11-05T03:06:33.902Z,96.20
2022-11-05T03:09:21.640Z,95.78
2022-11-05T03:12:09.321Z,95.26
2022-11-05T03:14:56.349Z,96.28
2022-11-05T03:17:43.741Z,94.88
2022-11-05T03:20:21.742Z,94.74
2022-11-05T03:23:01.509Z,94.33
2022-11-05T03:25:30.222Z,94.44
2022-11-05T03:28:02.747Z,94.67
2022-11-05T03:30:33.049Z,94.19
2022-11-05T03:33:05.610Z,94.35
2022-11-05T03:35:38.002Z,94.33
2022-11-05T03:38:10.154Z,94.32
2022-11-05T03:40:38.938Z,95.01
2022-11-05T03:43:08.135Z,95.19
2022-11-05T03:46:00.618Z,94.52
2022-11-05T03:48:30.174Z,95.74
2022-11-05T03:51:08.426Z,96.09
2022-11-05T03:53:48.025Z,96.66
2022-11-05T03:56:22.959Z,96.67
2022-11-05T03:58:52.288Z,95.84
2022-11-05T04:01:21.268Z,95.86
2022-11-05T04:03:48.002Z,96.56
2022-11-05T04:06:32.937Z,95.84
2022-11-05T04:09:18.149Z,96.76
2022-11-05T04:12:02.873Z,97.05
2022-11-05T04:14:31.028Z,96.01
2022-11-05T04:17:09.892Z,96.87
2022-11-05T04:20:01.040Z,96.90
2022-11-05T04:22:48.306Z,97.06
2022-11-05T04:25:16.619Z,97.55
2022-11-05T04:27:43.932Z,97.12
2022-11-05T04:30:20.656Z,95.87
2022-11-05T04:33:05.264Z,95.93
2022-11-05T04:35:41.253Z,95.72
2022-11-05T04:38:10.135Z,95.81
2022-11-05T04:40:37.222Z,95.85
2022-11-05T04:43:06.545Z,96.30
2022-11-05T04:45:36.617Z,97.11
2022-11-05T04:48:05.318Z,97.58
2022-11-05T04:50:32.870Z,97.33
2022-11-05T04:52:59.310Z,97.93
2022-11-05T04:55:26.419Z,97.60
2022-11-05T04:57:54.342Z,96.57
2022-11-05T05:00:22.317Z,95.78
2022-11-05T05:02:49.288Z,94.94
2022-11-05T05:05:16.212Z,94.53
2022-11-05T05:07:43.125Z,95.65
2022-11-05T05:10:10.793Z,94.75
2022-11-05T05:12:37.179Z,95.07
2022-11-05T05:15:04.142Z,95.13
2022-11-05T05:17:31.021Z,95.45
2022-11-05T05:20:16.025Z,95.53
2022-11-05T05:22:42.727Z,95.58
2022-11-05T05:25:09.297Z,95.04
2022-11-05T05:27:35.621Z,96.00
2022-11-05T05:30:02.914Z,94.41
2022-11-05T05:32:29.226Z,94.73
2022-11-05T05:34:55.671Z,95.64
2022-11-05T05:37:22.447Z,96.75
2022-11-05T05:39:49.673Z,97.72
2022-11-05T05:42:16.065Z,97.65
2022-11-05T05:44:42.851Z,97.65
2022-11-05T05:47:09.368Z,98.57
2022-11-05T05:49:35.696Z,98.45
2022-11-05T05:52:02.474Z,97.54
2022-11-05T05:54:32.314Z,98.17
2022-11-05T05:57:00.285Z,98.57
2022-11-05T05:59:26.616Z,98.24
2022-11-05T06:01:53.833Z,98.52
2022-11-05T06:04:20.629Z,98.27
2022-11-05T06:06:46.997Z,98.80
2022-11-05T06:09:14.671Z,98.26
2022-11-05T06:11:41.525Z,98.87
2022-11-05T06:14:12.838Z,97.89
2022-11-05T06:16:40.075Z,98.36
2022-11-05T06:19:07.370Z,98.15
2022-11-05T06:21:34.109Z,98.53
2022-11-05T06:24:02.199Z,97.71
2022-11-05T06:26:29.058Z,97.57
2022-11-05T06:28:55.849Z,96.91
2022-11-05T06:31:22.251Z,96.17
2022-11-05T06:33:48.766Z,96.47
2022-11-05T06:36:17.246Z,97.65
2022-11-05T06:38:43.943Z,97.48
2022-11-05T06:41:10.949Z,97.66
2022-11-05T06:43:38.302Z,98.51
2022-11-05T06:46:05.223Z,97.75
2022-11-05T06:48:31.801Z,97.61
2022-11-05T06:50:58.770Z,97.69
2022-11-05T06:53:25.209Z,96.88
2022-11-05T06:55:51.619Z,96.60
2022-11-05T06:58:18.535Z,96.74
2022-11-05T07:00:45.283Z,96.34
2022-11-05T07:03:12.889Z,96.19
2022-11-05T07:05:46.896Z,96.76
2022-11-05T07:08:13.371Z,96.88
2022-11-05T07:10:39.764Z,96.70
2022-11-05T07:13:08.426Z,97.45
2022-11-05T07:15:35.604Z,97.67
2022-11-05T07:18:02.657Z,97.93
2022-11-05T07:20:33.585Z,98.04
2022-11-05T07:23:05.805Z,97.67
2022-11-05T07:25:33.399Z,97.26
2022-11-05T07:28:00.262Z,97.16
2022-11-05T07:30:27.537Z,96.70
2022-11-05T07:32:53.938Z,96.02
2022-11-05T07:35:20.399Z,94.68
2022-11-05T07:37:49.697Z,93.35
2022-11-05T07:40:20.907Z,94.77
2022-11-05T07:42:50.425Z,94.36
2022-11-05T07:45:17.118Z,92.98
2022-11-05T07:47:52.812Z,93.47
2022-11-05T07:50:21.716Z,92.07
2022-11-05T07:52:48.870Z,93.95
2022-11-05T07:55:18.665Z,93.41
2022-11-05T07:57:47.748Z,93.45
2022-11-05T08:00:17.145Z,92.86
2022-11-05T08:02:44.540Z,92.32
2022-11-05T08:05:11.139Z,92.43
2022-11-05T08:07:37.489Z,92.14
2022-11-05T08:10:04.975Z,93.00
2022-11-05T08:12:32.416Z,91.94
2022-11-05T08:14:58.823Z,91.70
2022-11-05T08:17:25.573Z,90.08
2022-11-05T08:19:51.923Z,91.20
2022-11-05T08:22:18.349Z,90.20
2022-11-05T08:24:45.101Z,90.72
2022-11-05T08:27:11.424Z,90.22
2022-11-05T08:29:37.748Z,92.01
2022-11-05T08:32:04.580Z,91.75
2022-11-05T08:34:30.928Z,92.21
2022-11-05T08:36:57.346Z,91.45
2022-11-05T08:39:24.164Z,91.39
2022-11-05T08:41:50.699Z,91.24
2022-11-05T08:44:17.307Z,92.09
2022-11-05T08:46:44.296Z,92.07
2022-11-05T08:49:10.757Z,89.79
2022-11-05T08:51:37.082Z,90.21
2022-11-05T08:54:04.257Z,91.15
2022-11-05T08:56:30.650Z,90.93
2022-11-05T08:58:56.950Z,91.07
2022-11-05T09:01:23.911Z,91.12
2022-11-05T09:03:51.800Z,90.64
2022-11-05T09:06:22.570Z,89.78
2022-11-05T09:08:49.249Z,90.22
2022-11-05T09:11:15.600Z,89.66
2022-11-05T09:13:42.286Z,90.04
2022-11-05T09:16:18.700Z,89.46
2022-11-05T09:18:45.041Z,90.40
2022-11-05T09:21:11.373Z,89.68
2022-11-05T09:23:38.131Z,90.00
2022-11-05T09:26:05.246Z,89.60
2022-11-05T09:28:32.330Z,89.70
2022-11-05T09:30:58.644Z,89.19
2022-11-05T09:33:27.139Z,89.23
2022-11-05T09:35:53.710Z,89.44
2022-11-05T09:38:20.174Z,88.20
2022-11-05T09:41:01.161Z,89.28
2022-11-05T09:43:33.645Z,86.98
2022-11-05T09:46:09.907Z,87.42
2022-11-05T09:48:38.650Z,86.29
2022-11-05T09:51:05.976Z,86.41
2022-11-05T09:53:34.955Z,86.57
2022-11-05T09:56:01.453Z,85.30
2022-11-05T09:59:00.583Z,84.86
2022-11-05T10:01:33.309Z,85.03
2022-11-05T10:04:06.418Z,84.82
2022-11-05T10:06:33.021Z,83.17
2022-11-05T10:09:09.458Z,85.05
2022-11-05T10:11:43.689Z,83.28
2022-11-05T10:14:17.199Z,82.88
2022-11-05T10:16:50.173Z,82.56
2022-11-05T10:19:24.725Z,82.41
2022-11-05T10:22:06.704Z,80.99
2022-11-05T10:24:34.322Z,78.96
2022-11-05T10:27:01.403Z,78.84
2022-11-05T10:29:32.249Z,78.77
2022-11-05T10:32:01.630Z,80.77
2022-11-05T10:34:33.520Z,80.73
2022-11-05T10:37:00.685Z,81.58
2022-11-05T10:39:29.608Z,81.06
2022-11-05T10:42:11.684Z,81.99
2022-11-05T10:44:53.554Z,78.84
2022-11-05T10:47:41.556Z,78.87
2022-11-05T10:50:17.123Z,78.37
2022-11-05T10:52:58.360Z,78.58
2022-11-05T10:55:27.306Z,76.97
2022-11-05T10:57:54.373Z,76.88
2022-11-05T11:00:24.614Z,75.25
2022-11-05T11:03:04.309Z,75.14
2022-11-05T11:05:32.598Z,73.84
2022-11-05T11:08:13.327Z,75.65
2022-11-05T11:10:47.750Z,76.95
2022-11-05T11:13:40.713Z,74.34
2022-11-05T11:16:21.606Z,74.82
2022-11-05T11:18:53.945Z,74.91
2022-11-05T11:21:23.075Z,75.30
2022-11-05T11:23:59.054Z,76.31
2022-11-05T11:26:28.977Z,77.35
2022-11-05T11:29:28.424Z,77.12
2022-11-05T11:31:56.803Z,77.14
2022-11-05T11:34:30.205Z,76.99
2022-11-05T11:37:07.854Z,75.13
2022-11-05T11:39:35.509Z,74.90
2022-11-05T11:42:09.095Z,75.30
2022-11-05T11:44:44.961Z,72.70
2022-11-05T11:47:17.819Z,73.03
2022-11-05T11:50:03.475Z,71.74
2022-11-05T11:52:37.293Z,72.83
2022-11-05T11:55:13.600Z,73.09
2022-11-05T11:57:51.718Z,74.45
2022-11-05T12:00:20.377Z,75.88
2022-11-05T12:02:50.112Z,74.92
2022-11-05T12:05:41.739Z,76.66
2022-11-05T12:08:45.652Z,77.06
2022-11-05T12:11:24.344Z,77.30
2022-11-05T12:14:02.541Z,76.54
2022-11-05T12:16:35.738Z,78.20
2022-11-05T12:19:23.237Z,78.14
2022-11-05T12:22:08.045Z,77.69
2022-11-05T12:25:21.081Z,78.60
2022-11-05T12:28:15.474Z,78.95
2022-11-05T12:30:51.329Z,79.22
2022-11-05T12:33:28.884Z,79.00
2022-11-05T12:36:00.701Z,78.31
2022-11-05T12:38:45.773Z,78.55
2022-11-05T12:41:34.261Z,79.47
2022-11-05T12:44:34.893Z,79.28
2022-11-05T12:47:04.838Z,79.61
2022-11-05T12:49:38.411Z,80.20
2022-11-05T12:52:14.385Z,80.21
2022-11-05T12:54:52.981Z,79.83
2022-11-05T12:57:22.935Z,79.44
2022-11-05T13:00:18.863Z,77.96
2022-11-05T13:02:55.005Z,77.41
2022-11-05T13:05:34.124Z,78.83
2022-11-05T13:08:10.688Z,78.70
2022-11-05T13:10:44.726Z,78.51
2022-11-05T13:13:23.262Z,77.43
2022-11-05T13:15:54.222Z,77.49
2022-11-05T13:18:42.006Z,77.40
2022-11-05T13:21:10.307Z,77.93
2022-11-05T13:23:49.450Z,77.87
2022-11-05T13:26:23.779Z,77.00
2022-11-05T13:29:04.662Z,78.04
2022-11-05T13:31:36.852Z,77.95
2022-11-05T13:34:09.925Z,78.14
2022-11-05T13:37:10.332Z,78.37
2022-11-05T13:39:53.840Z,77.15
2022-11-05T13:42:39.888Z,77.79
2022-11-05T13:45:28.146Z,77.88
2022-11-05T13:48:13.288Z,78.34
2022-11-05T13:51:02.192Z,78.43
2022-11-05T13:53:55.682Z,79.10
2022-11-05T13:56:37.384Z,78.54
2022-11-05T13:59:34.250Z,78.98
2022-11-05T14:02:10.744Z,78.54
2022-11-05T14:04:43.863Z,79.15
2022-11-05T14:07:18.727Z,79.34
2022-11-05T14:09:45.989Z,78.72
2022-11-05T14:12:27.744Z,79.19
2022-11-05T14:15:02.934Z,79.33
2022-11-05T14:17:52.301Z,79.63
2022-11-05T14:20:31.281Z,79.21
2022-11-05T14:23:26.315Z,79.68
2022-11-05T14:26:14.373Z,80.14
2022-11-05T14:28:45.066Z,80.11
2022-11-05T14:31:47.388Z,80.68
2022-11-05T14:34:13.522Z,80.93
2022-11-05T14:36:44.679Z,80.88
2022-11-05T14:39:28.426Z,80.57
2022-11-05T14:41:56.706Z,80.45
2022-11-05T14:44:25.021Z,81.11
2022-11-05T14:46:55.080Z,80.17
2022-11-05T14:49:26.628Z,81.26
2022-11-05T14:51:57.099Z,80.47
2022-11-05T14:54:25.789Z,80.06
2022-11-05T14:56:57.142Z,80.13
2022-11-05T14:59:23.777Z,80.29
2022-11-05T15:01:50.126Z,80.12
2022-11-05T15:04:30.726Z,80.45
2022-11-05T15:07:03.028Z,80.69
2022-11-05T15:09:39.030Z,80.66
2022-11-05T15:12:05.466Z,80.57
2022-11-05T15:14:37.850Z,80.96
2022-11-05T15:17:16.252Z,80.36
2022-11-05T15:19:43.599Z,81.24
2022-11-05T15:22:32.521Z,81.21
2022-11-05T15:24:59.168Z,80.93
2022-11-05T15:27:25.463Z,81.47
2022-11-05T15:29:52.354Z,81.48
2022-11-05T15:32:23.349Z,81.40
2022-11-05T15:34:55.253Z,81.07
2022-11-05T15:37:25.393Z,80.88
2022-11-05T15:39:54.001Z,80.86
2022-11-05T15:42:26.570Z,80.63
2022-11-05T15:44:55.442Z,80.87
2022-11-05T15:47:21.726Z,80.44
2022-11-05T15:49:54.486Z,80.92
2022-11-05T15:52:54.648Z,81.16
2022-11-05T15:55:26.605Z,81.16
2022-11-05T15:58:00.106Z,81.54
2022-11-05T16:00:29.816Z,81.32
2022-11-05T16:03:00.443Z,82.17
2022-11-05T16:05:31.411Z,81.58
2022-11-05T16:07:59.911Z,81.89
2022-11-05T16:10:31.200Z,82.12
2022-11-05T16:12:57.564Z,83.79
2022-11-05T16:15:29.339Z,85.29
2022-11-05T16:17:59.010Z,85.83
2022-11-05T16:20:35.596Z,86.48
2022-11-05T16:23:22.080Z,85.43
2022-11-05T16:25:48.521Z,85.16
2022-11-05T16:28:30.346Z,85.23
2022-11-05T16:31:04.496Z,85.26
2022-11-05T16:33:40.775Z,85.03
2022-11-05T16:36:08.637Z,86.29
2022-11-05T16:38:35.040Z,86.55
2022-11-05T16:41:01.846Z,85.68
2022-11-05T16:43:28.209Z,85.19
2022-11-05T16:45:57.937Z,85.07
2022-11-05T16:48:25.704Z,84.45
2022-11-05T16:50:52.260Z,84.36
2022-11-05T16:53:18.626Z,83.85
2022-11-05T16:55:46.552Z,83.64
2022-11-05T16:58:22.169Z,84.18
2022-11-05T17:00:51.096Z,83.65
2022-11-05T17:03:17.773Z,83.97
2022-11-05T17:05:44.940Z,84.01
2022-11-05T17:08:11.684Z,84.04
2022-11-05T17:10:38.305Z,84.15
2022-11-05T17:13:05.022Z,84.77
2022-11-05T17:15:35.324Z,85.31
2022-11-05T17:18:03.436Z,84.59
2022-11-05T17:20:56.547Z,85.00
2022-11-05T17:23:26.641Z,85.21
2022-11-05T17:25:56.356Z,85.23
2022-11-05T17:28:23.295Z,85.25
2022-11-05T17:30:52.967Z,85.44
2022-11-05T17:33:20.870Z,85.90
2022-11-05T17:35:47.803Z,86.04
2022-11-05T17:38:14.814Z,86.98
2022-11-05T17:40:41.742Z,88.06
2022-11-05T17:43:09.388Z,87.73
2022-11-05T17:45:41.744Z,88.13
2022-11-05T17:48:09.622Z,87.75
2022-11-05T17:50:40.576Z,88.06
2022-11-05T17:53:07.412Z,88.80
2022-11-05T17:55:34.198Z,88.22
2022-11-05T17:58:00.629Z,88.87
2022-11-05T18:00:27.883Z,88.85
2022-11-05T18:02:54.505Z,88.33
2022-11-05T18:05:22.270Z,89.22
2022-11-05T18:07:49.969Z,89.44
2022-11-05T18:10:16.546Z,88.68
2022-11-05T18:12:43.340Z,88.01
2022-11-05T18:15:10.245Z,88.58
2022-11-05T18:17:37.088Z,88.21
2022-11-05T18:20:10.649Z,89.33
2022-11-05T18:22:40.877Z,91.05
2022-11-05T18:25:08.742Z,92.03
2022-11-05T18:27:35.500Z,92.41
2022-11-05T18:30:02.089Z,91.29
2022-11-05T18:32:28.425Z,90.68
2022-11-05T18:34:54.770Z,91.53
2022-11-05T18:37:21.304Z,90.82
2022-11-05T18:39:51.169Z,90.57
2022-11-05T18:42:18.136Z,90.35
2022-11-05T18:44:44.967Z,90.68
2022-11-05T18:47:11.825Z,90.50
2022-11-05T18:49:38.176Z,90.09
2022-11-05T18:52:05.463Z,89.89
2022-11-05T18:54:31.885Z,90.77
2022-11-05T18:56:58.507Z,90.00
2022-11-05T18:59:40.678Z,89.50
2022-11-05T19:02:08.784Z,90.21
2022-11-05T19:04:36.935Z,89.26
2022-11-05T19:07:05.435Z,89.68
2022-11-05T19:09:36.682Z,91.49
2022-11-05T19:12:04.427Z,92.38
2022-11-05T19:14:31.173Z,92.25
2022-11-05T19:16:59.082Z,92.28
2022-11-05T19:19:26.101Z,92.07
2022-11-05T19:21:52.462Z,91.52
2022-11-05T19:24:19.005Z,91.04
2022-11-05T19:26:46.534Z,91.71
2022-11-05T19:29:12.844Z,91.25
2022-11-05T19:31:39.158Z,91.28
2022-11-05T19:34:05.954Z,91.00
2022-11-05T19:36:33.195Z,90.92
2022-11-05T19:39:08.623Z,92.57
2022-11-05T19:41:35.282Z,92.38
2022-11-05T19:44:02.023Z,95.16
2022-11-05T19:46:30.913Z,95.17
2022-11-05T19:48:58.986Z,95.92
2022-11-05T19:51:27.580Z,95.74
2022-11-05T19:53:55.104Z,95.02
2022-11-05T19:56:23.794Z,96.05
2022-11-05T19:58:50.987Z,95.41
2022-11-05T20:01:18.575Z,94.95
2022-11-05T20:03:45.719Z,94.26
2022-11-05T20:06:21.611Z,93.73
2022-11-05T20:09:15.368Z,94.36
2022-11-05T20:11:39.863Z,94.52
2022-11-05T20:14:08.092Z,94.16
2022-11-05T20:16:39.903Z,93.70
2022-11-05T20:19:09.366Z,93.28
2022-11-05T20:21:35.835Z,93.18
2022-11-05T20:24:02.423Z,92.66
2022-11-05T20:26:29.817Z,94.14
2022-11-05T20:28:56.377Z,93.54
2022-11-05T20:31:22.965Z,93.42
2022-11-05T20:33:49.881Z,93.51
2022-11-05T20:36:22.054Z,94.15
2022-11-05T20:38:55.677Z,94.15
2022-11-05T20:41:22.164Z,94.08
2022-11-05T20:43:48.978Z,93.64
2022-11-05T20:46:17.908Z,94.42
2022-11-05T20:48:44.741Z,94.64
2022-11-05T20:51:17.084Z,94.51
2022-11-05T20:53:43.981Z,94.16
2022-11-05T20:56:19.322Z,94.22
2022-11-05T20:58:46.321Z,93.37
2022-11-05T21:01:13.809Z,94.00
2022-11-05T21:03:40.687Z,93.94
2022-11-05T21:06:07.581Z,93.83
2022-11-05T21:08:34.473Z,93.13
2022-11-05T21:11:00.875Z,93.11
2022-11-05T21:13:28.209Z,93.42
2022-11-05T21:15:57.013Z,93.34
2022-11-05T21:18:25.590Z,92.53
2022-11-05T21:20:52.484Z,93.54
2022-11-05T21:23:19.484Z,92.42
2022-11-05T21:25:46.584Z,92.99
2022-11-05T21:28:14.896Z,93.18
2022-11-05T21:30:45.472Z,93.20
2022-11-05T21:33:13.433Z,93.55
2022-11-05T21:35:41.513Z,93.90
2022-11-05T21:38:07.873Z,92.78
2022-11-05T21:40:34.712Z,93.04
2022-11-05T21:43:01.022Z,93.79
2022-11-05T21:45:27.551Z,94.18
2022-11-05T21:47:54.310Z,93.35
2022-11-05T21:50:40.619Z,94.92
2022-11-05T21:53:31.950Z,93.46
2022-11-05T21:56:17.232Z,93.21
2022-11-05T21:59:02.514Z,94.05
2022-11-05T22:01:29.061Z,94.18
2022-11-05T22:04:00.313Z,95.16
2022-11-05T22:06:29.583Z,94.05
2022-11-05T22:08:55.898Z,93.87
2022-11-05T22:11:22.209Z,94.23
2022-11-05T22:13:48.958Z,93.72
2022-11-05T22:16:15.316Z,93.79
2022-11-05T22:18:41.640Z,93.65
2022-11-05T22:21:08.383Z,93.80
2022-11-05T22:23:34.683Z,93.64
2022-11-05T22:26:01.752Z,93.65
2022-11-05T22:28:28.625Z,93.30
2022-11-05T22:30:55.565Z,93.69
2022-11-05T22:33:21.887Z,93.84
2022-11-05T22:35:48.600Z,93.17
2022-11-05T22:38:15.490Z,94.47
2022-11-05T22:40:41.857Z,94.15
2022-11-05T22:43:08.523Z,93.21
2022-11-05T22:45:36.373Z,93.06
2022-11-05T22:48:06.717Z,93.89
2022-11-05T22:50:33.858Z,93.36
2022-11-05T22:53:00.176Z,94.00
2022-11-05T22:55:26.495Z,93.87
2022-11-05T22:57:53.221Z,93.67
2022-11-05T23:00:19.611Z,93.65
2022-11-05T23:02:46.113Z,93.84
2022-11-05T23:05:13.183Z,93.60
2022-11-05T23:07:57.904Z,93.23
2022-11-05T23:10:42.881Z,93.29
2022-11-05T23:13:09.226Z,93.32
2022-11-05T23:15:54.566Z,94.09
2022-11-05T23:18:39.385Z,92.87
2022-11-05T23:21:25.249Z,92.72
2022-11-05T23:24:06.422Z,93.58
2022-11-05T23:26:50.467Z,93.64
2022-11-05T23:29:22.571Z,93.89
2022-11-05T23:32:08.612Z,93.42
2022-11-05T23:34:35.092Z,93.69
2022-11-05T23:37:20.501Z,93.23
2022-11-05T23:39:47.179Z,94.27
2022-11-05T23:42:31.869Z,94.24
2022-11-05T23:45:17.127Z,94.41
2022-11-05T23:48:01.764Z,94.16
2022-11-05T23:50:32.228Z,94.31
2022-11-05T23:53:02.126Z,94.01
2022-11-05T23:55:30.591Z,93.60
2022-11-05T23:57:56.902Z,93.85
